createdAt,value
2022-10-14T00:00:14.391Z,100529.75
2022-10-14T00:02:41.567Z,100526.34
2022-10-14T00:05:09.965Z,100530.78
2022-10-14T00:07:39.992Z,100523.84
2022-10-14T00:10:07.149Z,100525.66
2022-10-14T00:12:34.635Z,100524.00
2022-10-14T00:15:01.723Z,100522.28
2022-10-14T00:17:28.548Z,100527.56
2022-10-14T00:19:55.269Z,100518.91
2022-10-14T00:22:22.044Z,100516.31
2022-10-14T00:24:48.782Z,100521.59
2022-10-14T00:27:15.567Z,100519.94
2022-10-14T00:29:42.291Z,100520.91
2022-10-14T00:32:09.170Z,100522.69
2022-10-14T00:34:35.955Z,100521.00
2022-10-14T00:37:04.213Z,100511.44
2022-10-14T00:39:32.176Z,100512.38
2022-10-14T00:41:58.959Z,100510.66
2022-10-14T00:44:25.641Z,100515.06
2022-10-14T00:46:52.601Z,100514.22
2022-10-14T00:49:27.968Z,100517.78
2022-10-14T00:52:02.000Z,100510.81
2022-10-14T00:54:42.311Z,100515.25
2022-10-14T00:57:10.288Z,100523.13
2022-10-14T00:59:38.305Z,100517.91
2022-10-14T01:02:05.385Z,100511.81
2022-10-14T01:04:33.240Z,100506.59
2022-10-14T01:07:27.518Z,100511.84
2022-10-14T01:10:09.634Z,100508.38
2022-10-14T01:13:11.804Z,100505.75
2022-10-14T01:15:48.823Z,100497.88
2022-10-14T01:18:20.160Z,100504.88
2022-10-14T01:20:57.781Z,100502.28
2022-10-14T01:23:39.862Z,100497.06
2022-10-14T01:26:44.775Z,100497.97
2022-10-14T01:29:53.414Z,100500.59
2022-10-14T01:32:26.353Z,100502.34
2022-10-14T01:35:01.537Z,100499.72
2022-10-14T01:37:30.577Z,100494.47
2022-10-14T01:40:02.761Z,100498.84
2022-10-14T01:42:34.408Z,100494.47
2022-10-14T01:45:19.383Z,100492.72
2022-10-14T01:47:50.363Z,100497.09
2022-10-14T01:50:20.562Z,100493.59
2022-10-14T01:52:53.354Z,100497.06
2022-10-14T01:55:25.190Z,100491.84
2022-10-14T01:57:56.160Z,100509.25
2022-10-14T02:00:24.283Z,100504.91
2022-10-14T02:02:51.067Z,100499.69
2022-10-14T02:05:28.629Z,100497.06
2022-10-14T02:08:14.445Z,100495.28
2022-10-14T02:11:11.284Z,100488.28
2022-10-14T02:13:47.504Z,100494.44
2022-10-14T02:16:34.260Z,100490.91
2022-10-14T02:19:28.486Z,100493.59
2022-10-14T02:22:01.063Z,100487.50
2022-10-14T02:24:39.658Z,100491.03
2022-10-14T02:27:11.532Z,100487.56
2022-10-14T02:29:42.529Z,100491.06
2022-10-14T02:32:14.105Z,100497.19
2022-10-14T02:34:42.433Z,100493.72
2022-10-14T02:37:12.505Z,100492.84
2022-10-14T02:39:44.254Z,100494.63
2022-10-14T02:42:11.173Z,100498.13
2022-10-14T02:44:37.975Z,100485.91
2022-10-14T02:47:04.859Z,100485.91
2022-10-14T02:49:31.757Z,100492.91
2022-10-14T02:51:58.606Z,100499.91
2022-10-14T02:54:25.353Z,100494.69
2022-10-14T02:56:52.077Z,100495.56
2022-10-14T02:59:18.842Z,100492.06
2022-10-14T03:01:46.329Z,100488.59
2022-10-14T03:04:13.489Z,100484.25
2022-10-14T03:06:40.262Z,100491.19
2022-10-14T03:09:08.171Z,100490.31
2022-10-14T03:11:38.344Z,100492.94
2022-10-14T03:14:08.832Z,100485.09
2022-10-14T03:16:37.427Z,100488.56
2022-10-14T03:19:04.315Z,100485.06
2022-10-14T03:21:46.686Z,100486.81
2022-10-14T03:24:18.633Z,100486.81
2022-10-14T03:26:48.856Z,100485.94
2022-10-14T03:29:19.437Z,100486.78
2022-10-14T03:31:55.392Z,100482.41
2022-10-14T03:34:42.403Z,100485.00
2022-10-14T03:37:14.822Z,100488.47
2022-10-14T03:39:48.257Z,100487.59
2022-10-14T03:42:16.867Z,100486.75
2022-10-14T03:44:47.193Z,100480.63
2022-10-14T03:47:23.634Z,100481.53
2022-10-14T03:49:50.967Z,100488.47
2022-10-14T03:52:28.960Z,100479.78
2022-10-14T03:55:02.539Z,100486.72
2022-10-14T03:57:29.906Z,100487.63
2022-10-14T03:59:59.136Z,100486.72
2022-10-14T04:02:41.256Z,100484.16
2022-10-14T04:05:20.222Z,100486.75
2022-10-14T04:07:48.656Z,100481.53
2022-10-14T04:10:15.774Z,100485.03
2022-10-14T04:12:48.476Z,100492.00
2022-10-14T04:15:23.125Z,100477.19
2022-10-14T04:18:06.191Z,100485.94
2022-10-14T04:20:33.533Z,100480.72
2022-10-14T04:23:00.928Z,100484.19
2022-10-14T04:25:28.749Z,100483.34
2022-10-14T04:28:05.142Z,100481.63
2022-10-14T04:30:44.119Z,100489.47
2022-10-14T04:33:16.611Z,100488.59
2022-10-14T04:35:43.549Z,100488.59
2022-10-14T04:38:19.752Z,100489.44
2022-10-14T04:40:53.739Z,100490.31
2022-10-14T04:43:20.962Z,100486.78
2022-10-14T04:45:48.510Z,100488.50
2022-10-14T04:48:22.905Z,100491.06
2022-10-14T04:50:54.069Z,100482.31
2022-10-14T04:53:33.505Z,100487.47
2022-10-14T04:56:26.721Z,100491.72
2022-10-14T04:59:00.602Z,100487.25
2022-10-14T05:01:46.149Z,100482.81
2022-10-14T05:04:13.621Z,100486.19
2022-10-14T05:06:42.342Z,100481.69
2022-10-14T05:09:12.382Z,100483.28
2022-10-14T05:11:39.453Z,100486.63
2022-10-14T05:14:06.514Z,100489.16
2022-10-14T05:16:35.095Z,100488.94
2022-10-14T05:19:03.207Z,100487.94
2022-10-14T05:21:32.212Z,100481.63
2022-10-14T05:24:09.060Z,100485.75
2022-10-14T05:26:38.573Z,100482.91
2022-10-14T05:29:10.857Z,100479.19
2022-10-14T05:31:39.003Z,100490.38
2022-10-14T05:34:35.855Z,100484.78
2022-10-14T05:37:04.717Z,100490.63
2022-10-14T05:39:38.926Z,100490.28
2022-10-14T05:42:06.036Z,100487.34
2022-10-14T05:44:34.776Z,100492.31
2022-10-14T05:47:02.830Z,100492.09
2022-10-14T05:49:29.604Z,100501.47
2022-10-14T05:51:58.173Z,100497.50
2022-10-14T05:54:24.962Z,100496.13
2022-10-14T05:56:54.367Z,100486.75
2022-10-14T05:59:22.450Z,100492.53
2022-10-14T06:01:49.240Z,100495.75
2022-10-14T06:04:21.243Z,100493.66
2022-10-14T06:06:48.439Z,100494.97
2022-10-14T06:09:16.102Z,100492.72
2022-10-14T06:11:42.898Z,100499.97
2022-10-14T06:14:10.040Z,100496.59
2022-10-14T06:16:37.014Z,100500.31
2022-10-14T06:19:06.164Z,100499.63
2022-10-14T06:21:33.230Z,100490.28
2022-10-14T06:24:00.133Z,100488.91
2022-10-14T06:26:27.023Z,100498.91
2022-10-14T06:28:53.954Z,100493.81
2022-10-14T06:31:21.132Z,100497.56
2022-10-14T06:33:47.886Z,100496.22
2022-10-14T06:36:14.661Z,100495.56
2022-10-14T06:38:41.421Z,100499.97
2022-10-14T06:41:08.265Z,100499.09
2022-10-14T06:43:35.493Z,100496.38
2022-10-14T06:46:03.397Z,100491.91
2022-10-14T06:48:30.292Z,100489.44
2022-10-14T06:51:01.540Z,100489.81
2022-10-14T06:53:29.475Z,100488.09
2022-10-14T06:56:05.552Z,100490.41
2022-10-14T06:58:33.735Z,100495.97
2022-10-14T07:01:05.082Z,100485.91
2022-10-14T07:03:36.448Z,100487.13
2022-10-14T07:06:05.301Z,100484.59
2022-10-14T07:08:32.321Z,100489.09
2022-10-14T07:10:59.050Z,100478.78
2022-10-14T07:13:26.245Z,100473.66
2022-10-14T07:15:53.047Z,100466.06
2022-10-14T07:18:20.006Z,100468.88
2022-10-14T07:20:47.032Z,100463.66
2022-10-14T07:23:14.042Z,100458.84
2022-10-14T07:25:41.192Z,100446.44
2022-10-14T07:28:08.031Z,100445.28
2022-10-14T07:30:34.892Z,100450.38
2022-10-14T07:33:02.066Z,100442.81
2022-10-14T07:35:29.259Z,100449.69
2022-10-14T07:37:57.973Z,100451.50
2022-10-14T07:40:25.357Z,100446.50
2022-10-14T07:42:52.204Z,100447.44
2022-10-14T07:45:21.049Z,100456.03
2022-10-14T07:47:50.362Z,100450.72
2022-10-14T07:50:17.506Z,100446.88
2022-10-14T07:52:44.442Z,100448.13
2022-10-14T07:55:11.328Z,100444.38
2022-10-14T07:57:38.051Z,100443.59
2022-10-14T08:00:06.359Z,100443.41
2022-10-14T08:02:41.775Z,100443.88
2022-10-14T08:05:32.947Z,100440.50
2022-10-14T08:07:55.481Z,100438.59
2022-10-14T08:10:22.382Z,100440.38
2022-10-14T08:12:49.269Z,100442.13
2022-10-14T08:15:16.192Z,100449.19
2022-10-14T08:17:43.021Z,100432.22
2022-10-14T08:20:09.990Z,100442.00
2022-10-14T08:22:36.835Z,100438.56
2022-10-14T08:25:03.771Z,100431.78
2022-10-14T08:27:30.589Z,100441.78
2022-10-14T08:29:57.316Z,100432.53
2022-10-14T08:32:24.660Z,100435.06
2022-10-14T08:34:51.653Z,100432.34
2022-10-14T08:37:18.634Z,100425.38
2022-10-14T08:39:45.385Z,100422.88
2022-10-14T08:42:24.874Z,100421.31
2022-10-14T08:45:03.287Z,100422.44
2022-10-14T08:47:40.271Z,100415.59
2022-10-14T08:50:14.783Z,100413.03
2022-10-14T08:52:50.067Z,100418.75
2022-10-14T08:55:46.665Z,100408.25
2022-10-14T08:58:16.800Z,100412.66
2022-10-14T09:04:35.904Z,100407.38
2022-10-14T09:07:03.334Z,100412.63
2022-10-14T09:09:53.300Z,100407.53
2022-10-14T09:12:29.644Z,100411.91
2022-10-14T09:15:04.374Z,100416.19
2022-10-14T09:17:45.111Z,100412.09
2022-10-14T09:20:22.485Z,100408.41
2022-10-14T09:23:04.395Z,100412.75
2022-10-14T09:25:37.124Z,100413.72
2022-10-14T09:28:04.181Z,100410.38
2022-10-14T09:30:36.549Z,100413.66
2022-10-14T09:33:05.243Z,100407.47
2022-10-14T09:35:38.766Z,100407.97
2022-10-14T09:38:06.055Z,100401.72
2022-10-14T09:40:39.513Z,100400.50
2022-10-14T09:43:09.410Z,100398.81
2022-10-14T09:45:48.317Z,100402.41
2022-10-14T09:48:19.024Z,100389.22
2022-10-14T09:50:55.714Z,100395.03
2022-10-14T09:53:27.638Z,100400.84
2022-10-14T09:55:55.830Z,100397.94
2022-10-14T09:58:30.927Z,100392.69
2022-10-14T10:01:00.060Z,100398.69
2022-10-14T10:03:35.733Z,100404.59
2022-10-14T10:06:07.477Z,100400.22
2022-10-14T10:08:37.904Z,100398.25
2022-10-14T10:11:11.351Z,100403.94
2022-10-14T10:13:44.908Z,100406.41
2022-10-14T10:16:20.052Z,100412.31
2022-10-14T10:18:47.019Z,100406.41
2022-10-14T10:21:28.023Z,100404.06
2022-10-14T10:23:58.991Z,100405.88
2022-10-14T10:26:33.262Z,100407.13
2022-10-14T10:29:05.072Z,100408.75
2022-10-14T10:31:36.495Z,100400.78
2022-10-14T10:34:13.304Z,100403.97
2022-10-14T10:36:48.273Z,100401.78
2022-10-14T10:39:27.023Z,100403.56
2022-10-14T10:42:04.181Z,100396.44
2022-10-14T10:44:58.989Z,100388.41
2022-10-14T10:47:50.888Z,100391.16
2022-10-14T10:50:30.055Z,100392.13
2022-10-14T10:53:13.856Z,100393.13
2022-10-14T10:58:19.063Z,100382.34
2022-10-14T11:00:54.518Z,100385.41
2022-10-14T11:03:55.141Z,100377.22
2022-10-14T11:06:49.975Z,100384.69
2022-10-14T11:09:55.555Z,100381.47
2022-10-14T11:12:36.609Z,100377.94
2022-10-14T11:15:20.498Z,100374.00
2022-10-14T11:18:01.273Z,100376.09
2022-10-14T11:20:44.084Z,100374.25
2022-10-14T11:23:42.692Z,100378.53
2022-10-14T11:26:52.360Z,100371.31
2022-10-14T11:29:47.570Z,100370.25
2022-10-14T11:32:14.396Z,100368.84
2022-10-14T11:35:09.513Z,100362.75
2022-10-14T11:37:54.707Z,100370.94
2022-10-14T11:40:50.777Z,100365.22
2022-10-14T11:43:36.634Z,100364.72
2022-10-14T11:46:12.594Z,100368.78
2022-10-14T11:48:47.528Z,100356.88
2022-10-14T11:51:35.900Z,100360.66
2022-10-14T11:54:09.162Z,100365.34
2022-10-14T11:56:41.794Z,100361.88
2022-10-14T11:59:19.880Z,100367.88
2022-10-14T12:01:50.172Z,100367.81
2022-10-14T12:04:27.907Z,100377.59
2022-10-14T12:07:13.460Z,100375.94
2022-10-14T12:09:59.889Z,100360.59
2022-10-14T12:12:29.440Z,100366.94
2022-10-14T12:15:00.488Z,100367.31
2022-10-14T12:17:51.644Z,100364.72
2022-10-14T12:20:34.408Z,100365.56
2022-10-14T12:23:04.662Z,100370.28
2022-10-14T12:25:41.534Z,100361.94
2022-10-14T12:28:12.392Z,100375.94
2022-10-14T12:30:41.608Z,100359.59
2022-10-14T12:33:13.384Z,100353.66
2022-10-14T12:36:02.120Z,100360.59
2022-10-14T12:38:30.597Z,100354.69
2022-10-14T12:41:40.409Z,100348.00
2022-10-14T12:44:14.881Z,100350.41
2022-10-14T12:46:45.405Z,100348.34
2022-10-14T12:49:46.759Z,100348.16
2022-10-14T12:52:21.400Z,100354.97
2022-10-14T12:54:50.127Z,100349.25
2022-10-14T12:57:31.099Z,100348.72
2022-10-14T13:00:01.461Z,100344.78
2022-10-14T13:02:37.525Z,100338.13
2022-10-14T13:05:10.451Z,100333.19
2022-10-14T13:07:46.600Z,100348.28
2022-10-14T13:10:46.841Z,100342.47
2022-10-14T13:13:42.538Z,100342.84
2022-10-14T13:16:16.068Z,100337.31
2022-10-14T13:18:42.811Z,100331.56
2022-10-14T13:21:21.115Z,100338.06
2022-10-14T13:23:51.461Z,100339.50
2022-10-14T13:26:31.817Z,100337.69
2022-10-14T13:29:13.748Z,100341.53
2022-10-14T13:31:49.683Z,100340.75
2022-10-14T13:34:27.754Z,100331.28
2022-10-14T13:37:03.437Z,100338.75
2022-10-14T13:39:33.669Z,100337.28
2022-10-14T13:42:01.795Z,100329.72
2022-10-14T13:44:28.934Z,100337.94
2022-10-14T13:46:56.457Z,100334.66
2022-10-14T13:49:38.125Z,100334.44
2022-10-14T13:52:18.335Z,100338.91
2022-10-14T13:54:45.926Z,100340.75
2022-10-14T14:02:55.171Z,100343.22
2022-10-14T14:05:26.283Z,100342.19
2022-10-14T14:10:57.511Z,100350.84
2022-10-14T14:13:32.368Z,100349.78
2022-10-14T14:15:59.217Z,100348.56
2022-10-14T14:18:33.944Z,100339.94
2022-10-14T14:21:13.384Z,100336.69
2022-10-14T14:24:16.782Z,100335.19
2022-10-14T14:26:53.713Z,100334.75
2022-10-14T14:29:27.859Z,100333.63
2022-10-14T14:32:12.322Z,100333.34
2022-10-14T14:34:42.902Z,100334.81
2022-10-14T14:40:15.017Z,100326.34
2022-10-14T14:42:43.805Z,100328.16
2022-10-14T14:45:17.975Z,100320.91
2022-10-14T14:47:53.343Z,100321.13
2022-10-14T14:50:30.414Z,100320.38
2022-10-14T14:53:03.355Z,100317.16
2022-10-14T14:55:43.493Z,100311.22
2022-10-14T14:58:28.593Z,100320.16
2022-10-14T15:00:56.036Z,100325.88
2022-10-14T15:03:30.773Z,100313.78
2022-10-14T15:06:00.908Z,100312.13
2022-10-14T15:08:32.171Z,100319.91
2022-10-14T15:11:00.368Z,100325.16
2022-10-14T15:13:39.637Z,100323.31
2022-10-14T15:16:07.700Z,100324.00
2022-10-14T15:18:37.593Z,100330.88
2022-10-14T15:21:21.558Z,100329.84
2022-10-14T15:23:52.895Z,100330.59
2022-10-14T15:26:21.614Z,100328.56
2022-10-14T15:29:22.711Z,100328.47
2022-10-14T15:32:05.180Z,100326.44
2022-10-14T15:34:32.661Z,100331.47
2022-10-14T15:36:59.477Z,100329.44
2022-10-14T15:39:26.337Z,100329.91
2022-10-14T15:41:53.116Z,100332.06
2022-10-14T15:44:19.881Z,100337.72
2022-10-14T15:47:05.693Z,100337.19
2022-10-14T15:49:42.563Z,100343.75
2022-10-14T15:52:15.541Z,100345.03
2022-10-14T15:54:43.235Z,100338.34
2022-10-14T15:57:14.024Z,100348.31
2022-10-14T15:59:45.629Z,100345.94
2022-10-14T16:02:33.475Z,100346.19
2022-10-14T16:05:19.442Z,100339.44
2022-10-14T16:07:48.419Z,100345.78
2022-10-14T16:10:18.385Z,100343.41
2022-10-14T16:12:45.854Z,100352.31
2022-10-14T16:15:30.455Z,100350.75
2022-10-14T16:17:57.430Z,100349.16
2022-10-14T16:20:24.534Z,100352.81
2022-10-14T16:22:51.318Z,100344.13
2022-10-14T16:25:32.914Z,100347.81
2022-10-14T16:28:00.598Z,100351.47
2022-10-14T16:30:28.157Z,100351.69
2022-10-14T16:32:55.519Z,100351.81
2022-10-14T16:35:22.435Z,100348.41
2022-10-14T16:37:49.183Z,100350.22
2022-10-14T16:40:16.216Z,100354.72
2022-10-14T16:42:42.936Z,100351.28
2022-10-14T16:45:10.307Z,100353.13
2022-10-14T16:47:38.144Z,100354.09
2022-10-14T16:50:06.715Z,100348.94
2022-10-14T16:52:54.657Z,100349.94
2022-10-14T16:55:22.639Z,100350.88
2022-10-14T16:57:49.685Z,100356.28
2022-10-14T17:02:45.488Z,100361.72
2022-10-14T17:05:13.153Z,100356.59
2022-10-14T17:07:39.941Z,100360.19
2022-10-14T17:10:07.141Z,100350.66
2022-10-14T17:12:33.971Z,100352.47
2022-10-14T17:15:00.722Z,100352.53
2022-10-14T17:17:27.476Z,100357.06
2022-10-14T17:19:54.412Z,100351.88
2022-10-14T17:22:21.591Z,100354.59
2022-10-14T17:24:49.837Z,100353.81
2022-10-14T17:27:19.499Z,100348.63
2022-10-14T17:29:46.885Z,100346.19
2022-10-14T17:32:13.645Z,100348.84
2022-10-14T17:34:40.403Z,100349.78
2022-10-14T17:39:35.029Z,100354.19
2022-10-14T17:42:01.897Z,100354.31
2022-10-14T17:44:28.964Z,100346.44
2022-10-14T17:46:56.930Z,100346.47
2022-10-14T17:49:23.747Z,100343.94
2022-10-14T17:51:50.453Z,100342.28
2022-10-14T17:54:17.241Z,100351.13
2022-10-14T17:56:44.034Z,100343.28
2022-10-14T17:59:12.183Z,100346.88
2022-10-14T18:04:25.644Z,100353.03
2022-10-14T18:06:54.158Z,100353.91
2022-10-14T18:09:21.319Z,100353.97
2022-10-14T18:14:38.682Z,100349.78
2022-10-14T18:17:06.090Z,100353.38
2022-10-14T18:19:33.526Z,100359.59
2022-10-14T18:22:00.682Z,100358.78
2022-10-14T18:24:27.601Z,100357.97
2022-10-14T18:26:54.419Z,100361.53
2022-10-14T18:29:21.584Z,100368.59
2022-10-14T18:31:49.881Z,100361.66
2022-10-14T18:34:17.101Z,100363.47
2022-10-14T18:36:43.812Z,100371.34
2022-10-14T18:39:12.249Z,100367.06
2022-10-14T18:41:39.374Z,100363.53
2022-10-14T18:44:07.136Z,100371.44
2022-10-14T18:46:36.586Z,100360.97
2022-10-14T18:49:05.862Z,100366.25
2022-10-14T18:51:35.798Z,100367.16
2022-10-14T18:54:05.394Z,100365.41
2022-10-14T18:56:38.755Z,100368.06
2022-10-14T18:59:18.341Z,100374.19
2022-10-14T19:01:46.212Z,100374.25
2022-10-14T19:04:14.954Z,100374.25
2022-10-14T19:06:44.980Z,100380.41
2022-10-14T19:09:12.746Z,100389.19
2022-10-14T19:11:39.583Z,100387.50
2022-10-14T19:14:06.479Z,100392.78
2022-10-14T19:16:39.032Z,100392.78
2022-10-14T19:19:16.661Z,100389.31
2022-10-14T19:21:45.618Z,100396.31
2022-10-14T19:24:13.992Z,100396.34
2022-10-14T19:26:43.164Z,100397.28
2022-10-14T19:29:12.620Z,100394.69
2022-10-14T19:31:39.997Z,100399.97
2022-10-14T19:34:08.499Z,100404.38
2022-10-14T19:36:37.720Z,100406.97
2022-10-14T19:39:06.730Z,100404.34
2022-10-14T19:41:38.413Z,100403.47
2022-10-14T19:44:05.400Z,100408.69
2022-10-14T19:46:32.178Z,100411.34
2022-10-14T19:49:02.387Z,100406.09
2022-10-14T19:51:29.719Z,100409.66
2022-10-14T19:53:57.337Z,100417.53
2022-10-14T19:56:25.504Z,100418.44
2022-10-14T19:58:54.741Z,100417.63
2022-10-14T20:01:24.010Z,100417.63
2022-10-14T20:03:51.766Z,100420.28
2022-10-14T20:06:19.250Z,100429.91
2022-10-14T20:08:46.195Z,100425.53
2022-10-14T20:11:16.471Z,100429.06
2022-10-14T20:13:46.252Z,100421.22
2022-10-14T20:16:13.703Z,100419.53
2022-10-14T20:18:41.119Z,100417.81
2022-10-14T20:21:10.253Z,100413.50
2022-10-14T20:23:40.973Z,100417.91
2022-10-14T20:26:11.530Z,100419.72
2022-10-14T20:28:39.408Z,100424.06
2022-10-14T20:31:08.378Z,100426.72
2022-10-14T20:33:35.500Z,100432.88
2022-10-14T20:36:14.084Z,100419.78
2022-10-14T20:38:41.596Z,100428.53
2022-10-14T20:41:13.627Z,100427.72
2022-10-14T20:43:41.664Z,100425.16
2022-10-14T20:46:08.530Z,100428.72
2022-10-14T20:48:37.396Z,100427.88
2022-10-14T20:51:08.995Z,100427.91
2022-10-14T20:53:35.864Z,100429.63
2022-10-14T20:56:05.469Z,100420.91
2022-10-14T20:58:33.924Z,100427.03
2022-10-14T21:01:09.108Z,100423.56
2022-10-14T21:03:36.275Z,100423.59
2022-10-14T21:06:08.381Z,100436.69
2022-10-14T21:08:36.272Z,100429.75
2022-10-14T21:11:11.939Z,100433.22
2022-10-14T21:13:44.714Z,100433.25
2022-10-14T21:16:32.580Z,100442.84
2022-10-14T21:19:05.671Z,100438.50
2022-10-14T21:21:38.637Z,100443.72
2022-10-14T21:24:06.216Z,100442.88
2022-10-14T21:26:33.075Z,100435.91
2022-10-14T21:29:02.425Z,100439.41
2022-10-14T21:31:30.195Z,100432.44
2022-10-14T21:34:02.744Z,100437.72
2022-10-14T21:36:33.259Z,100441.25
2022-10-14T21:39:03.991Z,100437.81
2022-10-14T21:41:31.304Z,100439.53
2022-10-14T21:43:59.327Z,100435.19
2022-10-14T21:46:26.972Z,100435.22
2022-10-14T21:48:57.150Z,100431.72
2022-10-14T21:51:26.760Z,100435.22
2022-10-14T21:53:53.643Z,100435.22
2022-10-14T21:56:21.793Z,100437.00
2022-10-14T21:58:48.754Z,100431.75
2022-10-14T22:01:24.343Z,100430.00
2022-10-14T22:04:05.408Z,100430.00
2022-10-14T22:06:35.368Z,100435.25
2022-10-14T22:09:05.449Z,100440.50
2022-10-14T22:11:35.648Z,100437.00
2022-10-14T22:14:04.653Z,100439.63
2022-10-14T22:16:31.858Z,100439.63
2022-10-14T22:19:01.040Z,100442.25
2022-10-14T22:21:30.078Z,100445.72
2022-10-14T22:23:58.406Z,100440.47
2022-10-14T22:26:26.950Z,100450.94
2022-10-14T22:29:01.093Z,100441.38
2022-10-14T22:31:29.408Z,100442.25
2022-10-14T22:33:56.181Z,100447.47
2022-10-14T22:36:25.465Z,100447.47
2022-10-14T22:38:53.547Z,100444.88
2022-10-14T22:41:21.953Z,100449.25
2022-10-14T22:43:51.170Z,100452.75
2022-10-14T22:46:20.787Z,100449.28
2022-10-14T22:48:49.181Z,100451.03
2022-10-14T22:51:19.000Z,100447.50
2022-10-14T22:53:46.723Z,100446.63
2022-10-14T22:56:17.096Z,100449.25
2022-10-14T22:58:43.921Z,100443.94
2022-10-14T23:01:13.819Z,100439.53
2022-10-14T23:03:41.194Z,100436.00
2022-10-14T23:06:10.276Z,100444.66
2022-10-14T23:08:38.091Z,100437.59
2022-10-14T23:11:05.358Z,100444.50
2022-10-14T23:13:33.023Z,100438.34
2022-10-14T23:16:02.113Z,100441.75
2022-10-14T23:18:31.522Z,100450.44
2022-10-14T23:20:58.412Z,100443.41
2022-10-14T23:23:25.269Z,100438.09
2022-10-14T23:25:52.179Z,100445.03
2022-10-14T23:28:18.983Z,100444.13
2022-10-14T23:30:45.863Z,100448.44
2022-10-14T23:33:12.703Z,100445.78
2022-10-14T23:35:39.518Z,100447.50
2022-10-14T23:38:06.330Z,100447.50
2022-10-14T23:40:33.536Z,100448.41
2022-10-14T23:43:00.233Z,100446.72
2022-10-14T23:45:27.007Z,100438.84
2022-10-14T23:47:53.676Z,100443.22
2022-10-14T23:50:22.566Z,100433.66
2022-10-14T23:52:49.637Z,100433.69
2022-10-14T23:55:16.480Z,100436.31
2022-10-14T23:57:43.303Z,100436.34
